Time;durP1;ratioP1;P1;durP2;ratioP2;P2;SDS_P1;SDS_P2;PMS_P1;PMS_P2;Temp;Humidity;BMP_temperature;BMP_pressure;BME280_temperature;BME280_humidity;BME280_pressure;Samples;Min_cycle;Max_cycle;Signal;HPM_P1;HPM_P2
2022/06/17 00:00:48;;;;;;;18.10;13.73;;;;;;;18.43;65.14;102291.34;5064884;28;20033;-65
2022/06/17 00:03:14;;;;;;;19.38;13.75;;;;;;;18.38;66.01;102283.38;5069828;28;20032;-66
2022/06/17 00:05:40;;;;;;;21.25;13.93;;;;;;;18.35;66.12;102290.31;5069710;28;20025;-67
2022/06/17 00:08:17;;;;;;;17.70;14.25;;;;;;;18.31;65.61;102278.84;5066841;28;20021;-65
2022/06/17 00:10:43;;;;;;;17.85;14.57;;;;;;;18.30;65.58;102284.13;5064801;28;20032;-65
2022/06/17 00:13:13;;;;;;;18.92;14.65;;;;;;;18.25;66.17;102284.94;5069584;28;20129;-65
2022/06/17 00:15:38;;;;;;;20.15;14.95;;;;;;;18.27;65.48;102287.59;5069446;28;20498;-65
2022/06/17 00:18:03;;;;;;;20.15;16.38;;;;;;;18.25;65.73;102284.94;5060594;28;20017;-65
2022/06/17 00:20:30;;;;;;;22.75;17.15;;;;;;;18.23;65.92;102276.13;5055193;28;20036;-65
2022/06/17 00:22:55;;;;;;;22.33;17.95;;;;;;;18.23;65.24;102291.03;5066977;28;20017;-65
2022/06/17 00:25:34;;;;;;;18.65;15.38;;;;;;;18.23;64.77;102301.59;5069462;28;20032;-65
2022/06/17 00:28:00;;;;;;;23.13;17.58;;;;;;;18.22;64.78;102303.34;5060045;28;20028;-65
2022/06/17 00:30:29;;;;;;;21.65;17.50;;;;;;;18.18;64.76;102298.88;5050364;28;20029;-65
2022/06/17 00:33:00;;;;;;;27.33;19.67;;;;;;;18.14;64.76;102299.69;5069537;28;20096;-65
2022/06/17 00:35:42;;;;;;;24.38;18.25;;;;;;;18.10;64.49;102283.81;5069242;28;20678;-65
2022/06/17 00:38:14;;;;;;;28.67;19.77;;;;;;;17.97;65.30;102294.16;5069373;28;20024;-66
2022/06/17 00:40:40;;;;;;;25.23;19.83;;;;;;;17.97;65.23;102293.28;5066145;28;20480;-66
2022/06/17 00:43:16;;;;;;;23.50;17.17;;;;;;;17.90;66.16;102298.47;5068238;28;20030;-66
2022/06/17 00:45:49;;;;;;;24.90;18.58;;;;;;;17.83;66.53;102306.19;5069240;28;20020;-65
2022/06/17 00:48:28;;;;;;;25.10;17.67;;;;;;;17.86;65.62;102307.13;5056969;28;20052;-65
2022/06/17 00:51:02;;;;;;;25.83;18.13;;;;;;;17.84;66.19;102300.97;5048560;28;20060;-65
2022/06/17 00:54:10;;;;;;;25.40;18.13;;;;;;;17.87;65.02;102293.09;5051772;28;20031;-66
2022/06/17 00:56:36;;;;;;;23.70;18.02;;;;;;;17.81;66.89;102295.63;5050240;28;20037;-65
2022/06/17 00:59:11;;;;;;;23.38;17.77;;;;;;;17.75;66.96;102279.69;5069224;28;20103;-65
2022/06/17 01:01:50;;;;;;;25.30;18.45;;;;;;;17.72;66.70;102295.47;5071254;28;20024;-66
2022/06/17 01:04:21;;;;;;;;;;;;;;;17.80;65.03;102301.78;5062311;28;20104;-65
2022/06/17 01:06:55;;;;;;;23.05;17.38;;;;;;;17.67;67.22;102290.13;5072570;28;20402;-65
2022/06/17 01:12:22;;;;;;;25.40;18.20;;;;;;;17.60;67.04;102289.97;5072481;28;20036;-65
2022/06/17 01:14:48;;;;;;;25.23;18.70;;;;;;;17.55;67.05;102292.53;5072604;28;20475;-65
2022/06/17 01:17:16;;;;;;;27.83;19.90;;;;;;;17.50;66.42;102295.09;5069279;28;20070;-65
2022/06/17 01:19:46;;;;;;;25.73;19.27;;;;;;;17.43;66.90;102295.84;5048816;28;20027;-65
2022/06/17 01:22:26;;;;;;;23.77;18.73;;;;;;;17.40;66.46;102290.50;5067723;28;20060;-66
2022/06/17 01:24:57;;;;;;;22.83;18.25;;;;;;;17.38;66.15;102297.50;5067159;28;20027;-66
2022/06/17 01:27:26;;;;;;;26.98;18.35;;;;;;;17.30;66.66;102289.44;5059397;28;20036;-66
2022/06/17 01:29:52;;;;;;;25.30;18.88;;;;;;;17.33;67.00;102285.97;5067362;28;20024;-65
2022/06/17 01:32:21;;;;;;;24.50;19.25;;;;;;;17.32;66.67;102287.75;5072267;28;20043;-65
2022/06/17 01:34:47;;;;;;;;;;;;;;;17.40;65.02;102285.25;5072813;28;20024;-65
2022/06/17 01:37:12;;;;;;;27.27;19.95;;;;;;;17.32;66.78;102286.84;5072218;28;20311;-66
2022/06/17 01:39:41;;;;;;;26.17;20.40;;;;;;;17.27;67.66;102281.50;5071956;28;20032;-66
2022/06/17 01:42:06;;;;;;;23.23;19.35;;;;;;;17.27;67.25;102283.25;5065048;28;20622;-66
2022/06/17 01:44:35;;;;;;;23.77;19.33;;;;;;;17.24;66.91;102283.19;5063518;28;20626;-65
2022/06/17 01:47:05;;;;;;;25.30;19.73;;;;;;;17.24;66.78;102280.56;5058352;28;20522;-66
2022/06/17 01:49:51;;;;;;;25.58;19.50;;;;;;;17.21;67.29;102289.28;5068497;28;20029;-67
2022/06/17 01:52:40;;;;;;;24.30;18.90;;;;;;;17.17;67.07;102290.94;5071913;28;20028;-66
2022/06/17 01:55:15;;;;;;;28.58;20.50;;;;;;;17.15;67.17;102297.94;5057439;28;20480;-66
2022/06/17 01:57:50;;;;;;;27.30;20.98;;;;;;;17.02;67.91;102294.19;5071889;28;20269;-65
2022/06/17 02:00:23;;;;;;;26.65;20.20;;;;;;;17.00;67.28;102295.91;5071744;28;20035;-65
2022/06/17 02:02:54;;;;;;;27.77;19.90;;;;;;;16.99;67.54;102296.75;5068862;28;20068;-65
2022/06/17 02:05:21;;;;;;;27.70;20.63;;;;;;;16.98;67.18;102288.81;5059269;28;20028;-65
2022/06/17 02:07:52;;;;;;;25.75;20.13;;;;;;;16.95;67.73;102289.66;5071182;28;20078;-65
2022/06/17 02:10:19;;;;;;;28.95;20.13;;;;;;;16.93;68.92;102285.19;5071734;28;20028;-65
2022/06/17 02:12:45;;;;;;;26.05;19.17;;;;;;;16.90;69.33;102282.50;5070317;28;20024;-65
2022/06/17 02:15:12;;;;;;;27.30;20.63;;;;;;;16.89;68.57;102288.63;5071280;28;20028;-65
2022/06/17 02:17:42;;;;;;;24.10;20.00;;;;;;;16.87;68.30;102293.81;5061490;28;20013;-65
2022/06/17 02:20:10;;;;;;;25.88;19.60;;;;;;;16.83;68.82;102284.97;5051613;28;20561;-65
2022/06/17 02:22:36;;;;;;;25.55;20.08;;;;;;;16.85;68.74;102285.00;5058304;28;20033;-65
2022/06/17 02:25:06;;;;;;;26.10;19.52;;;;;;;16.84;68.85;102284.13;5071238;28;20028;-65
2022/06/17 02:27:34;;;;;;;27.65;20.02;;;;;;;16.84;68.92;102284.13;5058308;28;20124;-65
2022/06/17 02:30:00;;;;;;;26.83;19.65;;;;;;;16.82;68.89;102285.81;5071298;28;20040;-65
2022/06/17 02:32:26;;;;;;;29.67;21.02;;;;;;;16.77;68.65;102287.50;5061925;28;20017;-65
2022/06/17 02:34:58;;;;;;;26.20;20.02;;;;;;;16.78;68.89;102289.25;5063876;28;20047;-65
2022/06/17 02:37:25;;;;;;;26.98;19.40;;;;;;;16.74;68.97;102290.03;5070922;28;20032;-65
2022/06/17 02:39:52;;;;;;;28.42;21.00;;;;;;;16.74;68.65;102282.13;5070786;28;20060;-65
2022/06/17 02:42:27;;;;;;;26.20;20.23;;;;;;;16.69;68.89;102283.81;5063754;28;20361;-65
2022/06/17 02:45:01;;;;;;;27.23;20.60;;;;;;;16.67;68.63;102275.00;5044962;28;20111;-65
2022/06/17 02:47:29;;;;;;;25.00;19.90;;;;;;;16.66;68.82;102281.09;5069568;28;20507;-65
2022/06/17 02:49:54;;;;;;;31.80;21.90;;;;;;;16.64;69.05;102280.16;5058650;28;20028;-65
2022/06/17 02:52:33;;;;;;;29.10;21.38;;;;;;;16.62;68.78;102281.91;5070647;28;20070;-65
2022/06/17 02:55:02;;;;;;;29.55;22.02;;;;;;;16.59;69.14;102279.19;5070816;28;20024;-65
2022/06/17 02:57:30;;;;;;;31.15;21.95;;;;;;;16.56;68.37;102274.75;5056590;28;20025;-66
2022/06/17 03:00:12;;;;;;;32.20;21.80;;;;;;;16.54;68.40;102280.81;5060462;28;20111;-66
2022/06/17 03:03:02;;;;;;;33.90;23.63;;;;;;;16.54;68.08;102286.09;5069043;28;20028;-66
2022/06/17 03:05:32;;;;;;;36.50;23.52;;;;;;;16.51;68.31;102281.63;5070345;28;20446;-65
2022/06/17 03:08:00;;;;;;;33.17;22.85;;;;;;;16.48;68.73;102279.84;5070297;28;20108;-65
2022/06/17 03:10:37;;;;;;;35.78;24.33;;;;;;;16.44;68.53;102283.28;5065711;28;20572;-65
2022/06/17 03:13:31;;;;;;;30.83;23.38;;;;;;;16.45;67.99;102282.41;5045851;28;20400;-65
2022/06/17 03:16:02;;;;;;;32.42;23.02;;;;;;;16.40;68.55;102283.16;5062063;28;20093;-65
2022/06/17 03:18:28;;;;;;;31.15;23.15;;;;;;;16.40;68.91;102291.94;5056706;28;20036;-65
2022/06/17 03:20:54;;;;;;;30.75;22.48;;;;;;;16.39;68.95;102281.38;5061728;28;20055;-65
2022/06/17 03:23:24;;;;;;;35.03;24.23;;;;;;;16.34;69.20;102276.03;5067489;28;20056;-64
2022/06/17 03:26:09;;;;;;;35.38;24.17;;;;;;;16.35;68.20;102296.19;5058932;28;20399;-67
2022/06/17 03:28:41;;;;;;;34.13;23.83;;;;;;;16.30;68.73;102293.47;5055173;28;20020;-65
2022/06/17 03:31:11;;;;;;;34.38;24.35;;;;;;;16.31;68.75;102299.63;5070271;28;20116;-67
2022/06/17 03:33:51;;;;;;;34.35;24.13;;;;;;;16.30;68.63;102298.72;5070082;28;20028;-65
2022/06/17 03:36:48;;;;;;;32.90;23.65;;;;;;;16.30;68.26;102298.72;5060631;28;20423;-65
2022/06/17 03:39:21;;;;;;;33.90;22.80;;;;;;;16.29;69.04;102309.22;5067999;28;20083;-65
2022/06/17 03:42:00;;;;;;;33.55;23.05;;;;;;;16.28;69.62;102310.97;5070055;28;20016;-65
2022/06/17 03:44:33;;;;;;;34.10;24.77;;;;;;;16.29;69.42;102325.00;5069989;28;20033;-66
2022/06/17 03:47:06;;;;;;;33.95;24.00;;;;;;;16.28;69.47;102323.19;5067896;28;20044;-65
2022/06/17 03:49:50;;;;;;;33.97;24.02;;;;;;;16.28;69.43;102324.13;5052065;28;20025;-66
2022/06/17 03:52:40;;;;;;;32.70;23.63;;;;;;;16.30;69.41;102326.78;5068127;28;20032;-66
2022/06/17 03:55:13;;;;;;;35.92;23.92;;;;;;;16.28;69.47;102324.13;5069698;28;20403;-65
2022/06/17 03:57:41;;;;;;;34.55;25.35;;;;;;;16.30;70.35;102314.50;5063928;28;20031;-67
2022/06/17 04:00:15;;;;;;;34.40;25.40;;;;;;;16.33;69.91;102321.59;5069733;28;20107;-66
2022/06/17 04:02:42;;;;;;;32.80;24.50;;;;;;;16.34;69.31;102312.84;5061619;28;20179;-66
2022/06/17 04:05:14;;;;;;;35.55;25.73;;;;;;;16.35;70.39;102314.59;5065852;28;20033;-65
2022/06/17 04:07:40;;;;;;;35.33;24.88;;;;;;;16.37;71.84;102312.03;5068325;28;20031;-65
2022/06/17 04:10:06;;;;;;;36.97;26.27;;;;;;;16.38;72.31;102313.78;5069691;28;20033;-66
2022/06/17 04:12:32;;;;;;;34.60;25.73;;;;;;;16.39;71.39;102310.31;5069707;28;20033;-66
2022/06/17 04:15:32;;;;;;;36.42;25.42;;;;;;;16.42;71.00;102318.28;5069796;28;20021;-66
2022/06/17 04:17:58;;;;;;;36.47;25.25;;;;;;;16.42;71.45;102313.00;5046517;28;20080;-66
2022/06/17 04:20:25;;;;;;;35.30;25.70;;;;;;;16.43;70.92;102317.44;5052688;28;20511;-66
2022/06/17 04:22:54;;;;;;;40.95;26.40;;;;;;;16.44;71.78;102313.97;5059767;28;20032;-65
2022/06/17 04:25:32;;;;;;;42.28;27.77;;;;;;;16.45;71.46;102310.44;5067792;28;20020;-65
2022/06/17 04:28:03;;;;;;;40.40;27.88;;;;;;;16.44;72.08;102301.69;5065529;28;20032;-65
2022/06/17 04:30:33;;;;;;;38.58;27.02;;;;;;;16.47;71.62;102295.59;5065107;28;20024;-65
2022/06/17 04:33:03;;;;;;;39.60;27.80;;;;;;;16.48;71.81;102297.38;5066546;28;20032;-65
2022/06/17 04:35:29;;;;;;;44.83;28.60;;;;;;;16.48;72.16;102297.38;5073454;28;20031;-65
2022/06/17 04:37:54;;;;;;;38.05;27.10;;;;;;;16.53;71.76;102301.00;5073401;28;20044;-65
2022/06/17 04:40:36;;;;;;;41.33;27.40;;;;;;;16.56;71.36;102297.56;5067897;28;20081;-65
2022/06/17 04:43:07;;;;;;;40.72;27.25;;;;;;;16.56;71.85;102287.03;5066359;28;20484;-65
2022/06/17 04:45:32;;;;;;;42.35;28.15;;;;;;;16.60;72.12;102283.63;5061561;28;20107;-65
2022/06/17 04:47:58;;;;;;;38.63;28.27;;;;;;;16.60;72.46;102286.25;5069557;28;20128;-65
2022/06/17 04:50:26;;;;;;;42.33;28.80;;;;;;;16.60;72.66;102281.88;5073016;28;20487;-66
2022/06/17 04:52:54;;;;;;;44.30;29.80;;;;;;;16.64;72.24;102282.81;5073077;28;20078;-65
2022/06/17 04:55:25;;;;;;;44.30;28.83;;;;;;;16.65;72.83;102271.44;5068648;28;20036;-67
2022/06/17 04:57:50;;;;;;;44.60;30.52;;;;;;;16.67;73.17;102275.00;5071624;28;20027;-65
2022/06/17 05:00:21;;;;;;;44.63;30.80;;;;;;;16.68;73.06;102282.00;5072789;28;20028;-66
2022/06/17 05:02:47;;;;;;;48.47;31.17;;;;;;;16.70;72.96;102264.53;5072706;28;20058;-65
2022/06/17 05:05:27;;;;;;;44.92;30.70;;;;;;;16.73;72.97;102271.56;5072727;28;20460;-66
2022/06/17 05:07:54;;;;;;;42.75;29.75;;;;;;;16.76;74.35;102275.19;5067750;28;20037;-66
2022/06/17 05:10:24;;;;;;;45.30;29.40;;;;;;;16.77;73.64;102282.22;5050618;28;20028;-66
2022/06/17 05:13:02;;;;;;;44.38;30.15;;;;;;;16.81;73.56;102276.16;5072554;28;20052;-66
2022/06/17 05:15:28;;;;;;;44.00;30.05;;;;;;;16.85;74.29;102275.34;5072679;28;20082;-66
2022/06/17 05:17:55;;;;;;;46.13;31.05;;;;;;;16.86;74.49;102282.41;5066292;28;20021;-66
2022/06/17 05:20:22;;;;;;;45.28;30.00;;;;;;;16.91;74.70;102279.03;5054868;28;20036;-67
2022/06/17 05:22:50;;;;;;;44.00;29.77;;;;;;;16.94;73.48;102268.56;5062806;28;20028;-66
2022/06/17 05:25:24;;;;;;;44.17;29.92;;;;;;;16.95;73.42;102265.94;5072374;28;20565;-66
2022/06/17 05:27:50;;;;;;;45.92;29.95;;;;;;;17.00;74.60;102268.66;5060877;28;20056;-66
2022/06/17 05:30:16;;;;;;;46.90;29.73;;;;;;;17.01;75.05;102276.59;5072306;28;20063;-66
2022/06/17 05:32:44;;;;;;;41.38;28.45;;;;;;;17.04;73.76;102278.41;5072160;28;20074;-66
2022/06/17 05:35:10;;;;;;;44.95;29.80;;;;;;;17.04;74.26;102268.75;5072357;28;20030;-67
2022/06/17 05:37:35;;;;;;;46.72;30.10;;;;;;;17.09;74.50;102273.22;5068825;28;20111;-65
2022/06/17 05:40:01;;;;;;;42.55;29.15;;;;;;;17.10;74.32;102267.97;5072039;28;20458;-65
2022/06/17 05:42:27;;;;;;;49.13;30.35;;;;;;;17.15;75.36;102274.25;5072180;28;20035;-65
2022/06/17 05:44:52;;;;;;;45.65;28.52;;;;;;;17.18;75.04;102279.56;5072169;28;20069;-65
2022/06/17 05:47:18;;;;;;;47.20;29.50;;;;;;;17.24;73.73;102272.66;5067980;28;20132;-65
2022/06/17 05:49:43;;;;;;;48.22;30.23;;;;;;;17.28;75.19;102271.81;5059714;28;20479;-65
2022/06/17 05:52:10;;;;;;;48.10;29.30;;;;;;;17.30;74.35;102264.84;5071841;28;20027;-66
2022/06/17 05:54:36;;;;;;;46.38;29.42;;;;;;;17.33;73.55;102255.25;5071986;28;20087;-65
2022/06/17 05:57:02;;;;;;;44.13;29.45;;;;;;;17.38;73.68;102271.16;5071795;28;20032;-65
2022/06/17 05:59:27;;;;;;;43.90;28.33;;;;;;;17.41;74.74;102260.69;5071719;28;20032;-66
2022/06/17 06:01:53;;;;;;;50.13;29.88;;;;;;;17.45;73.97;102262.50;5053308;28;20120;-65
2022/06/17 06:04:18;;;;;;;54.85;29.42;;;;;;;17.49;75.93;102256.41;5060273;28;20020;-66
2022/06/17 06:06:43;;;;;;;48.92;28.92;;;;;;;17.54;74.96;102249.47;5064486;28;20056;-66
2022/06/17 06:09:09;;;;;;;48.85;30.38;;;;;;;17.57;73.77;102251.28;5070090;28;20085;-65
2022/06/17 06:11:34;;;;;;;53.83;30.30;;;;;;;17.62;73.98;102243.47;5071601;28;20024;-65
2022/06/17 06:14:00;;;;;;;46.50;29.73;;;;;;;17.65;74.47;102239.09;5062217;28;20086;-65
2022/06/17 06:16:25;;;;;;;47.92;30.13;;;;;;;17.69;75.15;102237.44;5066266;28;20111;-65
2022/06/17 06:18:50;;;;;;;50.13;30.83;;;;;;;17.72;75.13;102240.97;5057770;28;20028;-66
2022/06/17 06:21:16;;;;;;;46.92;29.73;;;;;;;17.77;74.62;102243.72;5066441;28;20487;-65
2022/06/17 06:23:42;;;;;;;46.53;27.70;;;;;;;17.80;73.81;102235.84;5070278;28;20438;-65
2022/06/17 06:26:12;;;;;;;47.58;28.55;;;;;;;17.83;74.86;102238.53;5069848;28;20054;-65
2022/06/17 06:28:37;;;;;;;47.65;29.00;;;;;;;17.87;74.04;102234.19;5053005;28;20104;-65
2022/06/17 06:31:19;;;;;;;49.95;29.15;;;;;;;17.92;73.73;102244.88;5071270;28;20464;-67
2022/06/17 06:33:44;;;;;;;43.47;26.65;;;;;;;17.95;73.03;102250.19;5071065;28;20033;-66
2022/06/17 06:36:10;;;;;;;45.30;27.42;;;;;;;17.99;73.75;102254.66;5071056;28;20035;-66
2022/06/17 06:38:35;;;;;;;43.85;25.90;;;;;;;18.01;73.33;102259.06;5070995;28;20028;-65
2022/06/17 06:41:02;;;;;;;44.30;27.50;;;;;;;18.05;74.20;102266.16;5069836;28;20036;-65
2022/06/17 06:43:27;;;;;;;42.13;25.27;;;;;;;18.08;72.99;102265.31;5056699;28;20025;-66
2022/06/17 06:45:53;;;;;;;45.05;27.10;;;;;;;18.13;73.49;102268.03;5070942;28;20058;-65
2022/06/17 06:48:23;;;;;;;45.53;26.55;;;;;;;18.16;72.36;102262.78;5056755;28;20407;-66
2022/06/17 06:50:48;;;;;;;41.35;24.58;;;;;;;18.20;73.44;102265.50;5070699;28;20024;-66
2022/06/17 06:53:14;;;;;;;40.63;25.60;;;;;;;18.22;72.23;102260.28;5050465;28;20449;-65
2022/06/17 06:55:39;;;;;;;41.88;26.50;;;;;;;18.24;72.56;102254.13;5058389;28;20021;-66
2022/06/17 06:58:16;;;;;;;42.13;25.70;;;;;;;18.28;72.08;102257.72;5056314;28;20562;-66
2022/06/17 07:00:45;;;;;;;38.38;24.40;;;;;;;18.31;72.33;102264.78;5058385;28;20028;-66
2022/06/17 07:03:11;;;;;;;44.75;26.30;;;;;;;18.35;73.46;102274.50;5052474;28;20029;-66
2022/06/17 07:05:40;;;;;;;43.85;27.40;;;;;;;18.40;74.30;102270.19;5044057;28;20082;-66
2022/06/17 07:08:06;;;;;;;44.13;27.35;;;;;;;18.47;72.30;102268.53;5053323;28;20104;-67
2022/06/17 07:10:34;;;;;;;45.47;27.88;;;;;;;18.55;70.12;102266.84;5049471;28;20085;-65
2022/06/17 07:13:00;;;;;;;41.47;26.35;;;;;;;18.62;70.62;102267.84;5054572;28;20381;-65
2022/06/17 07:15:26;;;;;;;38.63;26.65;;;;;;;18.67;69.91;102266.13;5053746;28;20028;-65
2022/06/17 07:18:05;;;;;;;43.13;26.20;;;;;;;18.76;70.34;102255.69;5050217;28;20016;-65
2022/06/17 07:20:38;;;;;;;42.65;25.25;;;;;;;18.85;70.48;102258.44;5049380;28;20040;-65
2022/06/17 07:23:04;;;;;;;41.17;24.70;;;;;;;18.93;69.39;102253.31;5056925;28;20435;-65
2022/06/17 07:25:30;;;;;;;35.80;20.50;;;;;;;19.00;66.24;102255.16;5066307;28;20024;-66
2022/06/17 07:27:56;;;;;;;32.60;18.60;;;;;;;19.09;66.03;102257.00;5060809;28;20560;-66
2022/06/17 07:30:21;;;;;;;26.33;18.77;;;;;;;19.19;66.31;102253.59;5067274;28;20035;-67
2022/06/17 07:32:47;;;;;;;26.58;17.35;;;;;;;19.27;65.23;102243.94;5064595;28;20345;-66
2022/06/17 07:35:14;;;;;;;27.65;17.20;;;;;;;19.35;65.66;102248.44;5068876;28;20017;-65
2022/06/17 07:40:24;;;;;;;24.90;15.73;;;;;;;19.48;64.22;102249.44;5044375;28;20448;-67
2022/06/17 07:42:49;;;;;;;24.05;16.20;;;;;;;19.55;64.38;102238.94;5050529;28;20504;-67
2022/06/17 07:45:18;;;;;;;23.80;14.95;;;;;;;19.62;62.80;102256.63;5050845;28;20400;-67
2022/06/17 07:47:46;;;;;;;26.52;15.32;;;;;;;19.70;62.27;102259.34;5042667;28;20049;-66
2022/06/17 07:50:14;;;;;;;22.73;14.38;;;;;;;19.78;62.44;102259.38;5052907;28;20033;-66
2022/06/17 07:52:40;;;;;;;18.60;14.15;;;;;;;19.87;62.20;102264.81;5053819;28;20481;-66
2022/06/17 07:55:06;;;;;;;21.05;14.45;;;;;;;19.93;61.75;102261.31;5055727;28;20032;-66
2022/06/17 07:57:32;;;;;;;23.27;14.07;;;;;;;20.06;61.90;102252.59;5055142;28;20200;-66
2022/06/17 07:59:57;;;;;;;19.45;13.55;;;;;;;20.12;61.20;102252.63;5050118;28;20021;-66
2022/06/17 08:02:22;;;;;;;18.27;12.95;;;;;;;20.21;61.03;102251.78;5043193;28;20034;-66
2022/06/17 08:04:48;;;;;;;22.17;12.82;;;;;;;20.28;60.61;102248.31;5062799;28;20036;-66
2022/06/17 08:07:13;;;;;;;21.35;12.82;;;;;;;20.37;63.09;102254.53;5046817;28;20463;-66
2022/06/17 08:09:38;;;;;;;19.42;12.80;;;;;;;20.47;60.82;102265.16;5062434;28;20021;-66
2022/06/17 08:12:08;;;;;;;16.10;12.07;;;;;;;20.57;57.92;102262.59;5057193;28;20076;-66
2022/06/17 08:14:35;;;;;;;17.83;12.13;;;;;;;20.68;59.00;102274.13;5055920;28;20510;-66
2022/06/17 08:17:00;;;;;;;18.90;12.40;;;;;;;20.76;58.64;102279.47;5043666;28;20029;-66
2022/06/17 08:19:26;;;;;;;15.88;11.82;;;;;;;20.86;57.22;102265.38;5049650;28;20032;-67
2022/06/17 08:21:51;;;;;;;18.48;11.45;;;;;;;20.92;58.44;102267.19;5051248;28;20029;-66
2022/06/17 08:24:16;;;;;;;15.23;10.50;;;;;;;21.01;58.90;102268.09;5051766;28;20029;-66
2022/06/17 08:26:41;;;;;;;15.55;11.07;;;;;;;21.14;56.58;102270.75;5046325;28;20027;-66
2022/06/17 08:29:07;;;;;;;16.67;11.27;;;;;;;21.21;56.24;102279.63;5046297;28;20438;-66
2022/06/17 08:31:32;;;;;;;18.48;10.15;;;;;;;21.29;55.23;102276.09;5047337;28;20392;-66
2022/06/17 08:33:57;;;;;;;16.30;9.80;;;;;;;21.35;54.96;102270.81;5051008;28;20032;-71
2022/06/17 08:36:26;;;;;;;17.30;10.10;;;;;;;21.39;54.78;102258.41;5053104;28;20052;-65
2022/06/17 08:38:56;;;;;;;15.38;9.50;;;;;;;21.46;54.39;102254.03;5053627;28;20021;-65
2022/06/17 08:41:32;;;;;;;15.93;9.77;;;;;;;21.48;53.22;102246.97;5045821;28;20059;-66
2022/06/17 08:44:15;;;;;;;14.48;9.52;;;;;;;21.54;54.14;102236.38;5051141;28;20411;-66
2022/06/17 08:47:20;;;;;;;17.15;9.80;;;;;;;21.60;54.90;102247.00;5061101;28;20136;-66
2022/06/17 08:50:06;;;;;;;16.85;9.77;;;;;;;21.62;55.59;102247.84;5055837;28;20278;-67
2022/06/17 08:52:59;;;;;;;13.38;10.20;;;;;;;21.72;54.28;102251.41;5044912;28;20072;-66
2022/06/17 08:55:35;;;;;;;13.85;9.85;;;;;;;21.81;54.25;102256.72;5043275;28;20511;-66
2022/06/17 08:58:15;;;;;;;15.80;9.77;;;;;;;21.89;54.22;102254.06;5049346;28;20092;-66
2022/06/17 09:00:53;;;;;;;15.63;10.40;;;;;;;21.98;56.72;102253.16;5053126;28;20035;-65
2022/06/17 09:03:46;;;;;;;15.07;10.73;;;;;;;22.08;54.32;102259.34;5053870;28;20052;-65
2022/06/17 09:06:34;;;;;;;15.85;10.40;;;;;;;22.18;53.38;102255.78;5044846;28;20287;-65
2022/06/17 09:09:31;;;;;;;18.55;10.63;;;;;;;22.29;52.80;102261.94;5051029;28;20052;-65
2022/06/17 09:12:39;;;;;;;17.60;11.43;;;;;;;22.38;52.45;102253.97;5043705;28;20028;-65
2022/06/17 09:15:32;;;;;;;16.10;10.82;;;;;;;22.51;53.14;102260.13;5043003;28;20088;-65
2022/06/17 09:18:08;;;;;;;17.30;10.80;;;;;;;22.62;53.57;102241.50;5041070;28;20440;-66
2022/06/17 09:20:39;;;;;;;21.00;10.70;;;;;;;22.72;51.47;102234.38;5065543;28;20166;-66
2022/06/17 09:23:05;;;;;;;15.43;10.70;;;;;;;22.82;51.68;102230.75;5052992;28;20040;-66
2022/06/17 09:25:41;;;;;;;15.65;10.35;;;;;;;22.92;51.56;102239.56;5068053;28;20143;-66
2022/06/17 09:28:12;;;;;;;14.52;9.93;;;;;;;23.01;50.61;102243.97;5071979;28;20111;-66
2022/06/17 09:30:44;;;;;;;17.35;10.77;;;;;;;23.05;48.39;102246.59;5071416;28;20024;-66
2022/06/17 09:33:18;;;;;;;18.10;10.77;;;;;;;23.16;48.12;102243.00;5055522;28;20495;-66
2022/06/17 09:35:49;;;;;;;16.40;10.40;;;;;;;23.24;48.29;102246.50;5063806;28;20506;-65
2022/06/17 09:38:30;;;;;;;17.75;10.20;;;;;;;23.30;49.78;102246.44;5071879;28;20016;-65
2022/06/17 09:41:01;;;;;;;18.00;10.35;;;;;;;23.37;48.82;102242.84;5072329;28;20048;-65
2022/06/17 09:43:29;;;;;;;14.13;9.15;;;;;;;23.47;49.50;102240.16;5071992;28;20067;-65
2022/06/17 09:46:07;;;;;;;19.10;11.48;;;;;;;23.54;48.04;102237.41;5070543;28;20029;-66
2022/06/17 09:48:39;;;;;;;14.90;9.65;;;;;;;23.60;49.29;102237.34;5042094;28;20044;-60
2022/06/17 09:51:25;;;;;;;13.70;8.63;;;;;;;23.70;48.95;102246.16;5060177;28;20028;-60
2022/06/17 09:54:00;;;;;;;16.85;9.52;;;;;;;23.79;48.38;102245.19;5070052;28;20040;-60
2022/06/17 09:56:47;;;;;;;14.80;9.65;;;;;;;23.91;50.03;102244.19;5071809;28;20036;-61
2022/06/17 09:59:18;;;;;;;11.32;8.65;;;;;;;24.00;48.47;102246.78;5071755;28;20021;-61
2022/06/17 10:01:45;;;;;;;13.55;8.68;;;;;;;24.08;48.58;102236.91;5066395;28;20028;-61
2022/06/17 10:04:12;;;;;;;14.60;9.20;;;;;;;24.13;48.18;102232.44;5071760;28;20021;-61
2022/06/17 10:06:46;;;;;;;15.65;8.65;;;;;;;24.23;50.53;102225.25;5056596;28;20054;-61
2022/06/17 10:09:19;;;;;;;14.55;9.05;;;;;;;24.30;48.15;102221.59;5071586;28;20032;-61
2022/06/17 10:12:22;;;;;;;14.63;8.55;;;;;;;24.40;48.86;102219.69;5068663;28;20082;-61
2022/06/17 10:15:09;;;;;;;15.48;8.82;;;;;;;24.45;45.52;102219.66;5071436;28;20501;-61
2022/06/17 10:20:42;;;;;;;12.43;8.18;;;;;;;24.63;47.36;102214.09;5044299;28;20048;-62
2022/06/17 10:23:07;;;;;;;11.57;7.78;;;;;;;24.69;46.12;102207.81;5049936;28;20024;-61
2022/06/17 10:26:03;;;;;;;12.77;8.27;;;;;;;24.77;46.44;102202.38;5039080;28;20090;-62
2022/06/17 10:28:37;;;;;;;11.73;8.43;;;;;;;24.85;45.98;102204.94;5040365;28;20116;-61
2022/06/17 10:31:12;;;;;;;12.18;8.43;;;;;;;24.90;46.76;102195.09;5066396;28;20044;-62
2022/06/17 10:33:39;;;;;;;13.85;8.30;;;;;;;24.99;45.74;102186.94;5046450;28;20108;-61
2022/06/17 10:36:06;;;;;;;14.25;7.82;;;;;;;25.03;45.25;102196.66;5059848;28;20037;-61
2022/06/17 10:38:39;;;;;;;10.52;7.72;;;;;;;25.14;45.42;102201.81;5060399;28;20028;-61
2022/06/17 10:41:06;;;;;;;10.95;7.63;;;;;;;25.24;44.56;102206.09;5049172;28;20655;-61
2022/06/17 10:43:36;;;;;;;9.25;6.35;;;;;;;25.32;44.95;102200.69;5049688;28;20058;-63
2022/06/17 10:46:05;;;;;;;11.48;6.82;;;;;;;25.42;43.37;102199.63;5044816;28;20539;-61
2022/06/17 10:48:55;;;;;;;9.50;6.70;;;;;;;25.50;44.10;102200.34;5053080;28;20053;-66
2022/06/17 10:51:20;;;;;;;8.60;6.50;;;;;;;25.59;42.15;102190.44;5043821;28;20023;-66
2022/06/17 10:53:53;;;;;;;10.18;6.00;;;;;;;25.65;44.33;102198.31;5043808;28;20029;-64
2022/06/17 10:56:25;;;;;;;10.32;6.53;;;;;;;25.70;43.59;102196.47;5041290;28;20043;-66
2022/06/17 10:59:03;;;;;;;10.40;6.07;;;;;;;25.84;43.22;102186.41;5046198;28;20029;-68
2022/06/17 11:01:47;;;;;;;9.27;5.53;;;;;;;25.91;42.42;102186.28;5047322;28;20111;-68
2022/06/17 11:04:17;;;;;;;8.07;5.72;;;;;;;25.95;41.39;102182.66;5055236;28;20025;-67
2022/06/17 11:06:56;;;;;;;10.95;6.32;;;;;;;25.97;43.02;102173.72;5057060;28;20455;-69
2022/06/17 11:09:28;;;;;;;8.77;5.95;;;;;;;26.04;42.11;102174.47;5043711;28;20091;-69
2022/06/17 11:12:10;;;;;;;11.40;5.43;;;;;;;26.14;41.67;102169.84;5045867;28;20040;-69
2022/06/17 11:14:38;;;;;;;23.25;6.70;;;;;;;26.18;40.09;102158.19;5044939;28;20025;-68
2022/06/17 11:17:30;;;;;;;25.45;6.78;;;;;;;26.25;42.14;102156.28;5050983;28;20488;-68
2022/06/17 11:20:00;;;;;;;8.40;5.85;;;;;;;26.39;41.39;102151.50;5044628;28;20032;-68
2022/06/17 11:22:34;;;;;;;8.95;5.60;;;;;;;26.42;40.73;102156.78;5048780;28;20057;-70
2022/06/17 11:25:05;;;;;;;9.60;5.85;;;;;;;26.48;40.29;102155.78;5046467;28;20195;-69
2022/06/17 11:27:42;;;;;;;7.38;5.47;;;;;;;26.53;39.39;102144.06;5048426;28;20029;-70
2022/06/17 11:30:31;;;;;;;7.15;5.35;;;;;;;26.63;41.62;102142.03;5044661;28;20044;-69
2022/06/17 11:32:59;;;;;;;8.07;5.70;;;;;;;26.67;38.83;102137.50;5058195;28;20092;-68
2022/06/17 11:35:45;;;;;;;8.07;5.20;;;;;;;26.76;40.37;102137.31;5065892;28;20560;-68
2022/06/17 11:38:14;;;;;;;9.55;5.68;;;;;;;26.79;37.78;102131.88;5057170;28;20043;-69
2022/06/17 11:40:52;;;;;;;7.45;5.43;;;;;;;26.84;40.54;102138.03;5057475;28;20024;-68